Time;durP1;ratioP1;P1;durP2;ratioP2;P2;SDS_P1;SDS_P2;PMS_P1;PMS_P2;Temp;Humidity;BMP_temperature;BMP_pressure;BME280_temperature;BME280_humidity;BME280_pressure;Samples;Min_cycle;Max_cycle;Signal;HPM_P1;HPM_P2
2021/07/21 00:00:07;;;;;;;11.28;8.23;;;;;;;16.12;68.92;101393.34;1811165;78;21065;-85
2021/07/21 00:02:36;;;;;;;18.07;8.13;;;;;;;16.10;68.96;101393.35;1812158;79;28832;-84
2021/07/21 00:05:09;;;;;;;18.95;9.13;;;;;;;16.09;69.00;101395.98;1811786;79;21113;-84
2021/07/21 00:07:36;;;;;;;17.87;8.77;;;;;;;16.06;69.04;101390.63;1812444;79;20989;-84
2021/07/21 00:10:05;;;;;;;13.05;8.68;;;;;;;16.04;69.14;101391.04;1812026;79;22416;-84
2021/07/21 00:15:18;;;;;;;12.75;8.58;;;;;;;16.01;69.25;101392.31;1812062;79;20963;-84
2021/07/21 00:17:46;;;;;;;15.95;8.70;;;;;;;15.97;69.28;101389.17;1812089;79;21607;-84
2021/07/21 00:20:15;;;;;;;14.95;8.15;;;;;;;15.94;69.39;101393.58;1812133;79;20991;-81
2021/07/21 00:22:44;;;;;;;15.53;8.05;;;;;;;15.92;69.44;101391.78;1811946;79;21779;-81
2021/07/21 00:25:15;;;;;;;12.58;7.65;;;;;;;15.88;69.53;101388.19;1812088;79;20996;-82
2021/07/21 00:27:42;;;;;;;15.40;8.08;;;;;;;15.85;69.62;101389.91;1777127;79;20984;-81
2021/07/21 00:30:11;;;;;;;16.20;8.48;;;;;;;15.84;69.79;101392.09;1804147;78;20991;-81
2021/07/21 00:32:38;;;;;;;12.45;8.28;;;;;;;15.82;69.85;101382.81;1780846;79;21450;-81
2021/07/21 00:35:09;;;;;;;11.93;7.95;;;;;;;15.80;69.90;101385.84;1771148;79;21389;-81
2021/07/21 00:37:36;;;;;;;13.48;7.80;;;;;;;15.76;69.93;101383.14;1786103;78;21485;-82
2021/07/21 00:40:06;;;;;;;13.75;8.80;;;;;;;15.73;70.05;101387.55;1787402;79;21045;-83
2021/07/21 00:42:32;;;;;;;15.32;7.37;;;;;;;15.73;70.13;101387.95;1784611;78;21050;-82
2021/07/21 00:44:59;;;;;;;13.30;8.35;;;;;;;15.69;70.14;101388.34;1777739;79;20975;-82
2021/07/21 00:47:26;;;;;;;11.60;7.97;;;;;;;15.64;70.17;101383.39;1804192;79;21697;-82
2021/07/21 00:49:52;;;;;;;12.55;8.28;;;;;;;15.64;70.33;101386.50;1781738;79;21023;-82
2021/07/21 00:52:19;;;;;;;14.47;8.03;;;;;;;15.61;70.41;101386.44;1792476;79;21489;-82
2021/07/21 00:54:46;;;;;;;11.78;8.13;;;;;;;15.59;70.46;101390.39;1776209;79;21555;-81
2021/07/21 00:57:13;;;;;;;11.20;7.45;;;;;;;15.60;70.60;101387.30;1800319;79;20999;-82
2021/07/21 00:59:40;;;;;;;14.40;7.95;;;;;;;15.58;70.62;101379.34;1783402;79;21860;-82
2021/07/21 01:02:06;;;;;;;11.60;7.50;;;;;;;15.55;70.69;101384.14;1778231;79;20980;-84
2021/07/21 01:04:34;;;;;;;13.83;8.18;;;;;;;15.52;70.76;101378.81;1789326;78;21131;-81
2021/07/21 01:07:01;;;;;;;11.97;7.67;;;;;;;15.51;70.88;101386.75;1783511;79;21024;-82
2021/07/21 01:09:28;;;;;;;13.45;8.45;;;;;;;15.50;70.93;101380.55;1794836;79;21066;-81
2021/07/21 01:12:32;;;;;;;11.00;7.95;;;;;;;15.47;70.97;101380.50;1793305;79;21737;-82
2021/07/21 01:15:18;;;;;;;10.23;7.62;;;;;;;15.44;71.04;101375.58;1798741;79;20967;-82
2021/07/21 01:18:01;;;;;;;10.60;7.58;;;;;;;15.42;71.28;101375.55;1783923;79;20992;-82
2021/07/21 01:21:10;;;;;;;12.88;7.95;;;;;;;15.44;71.41;101375.58;1790028;78;21636;-82
2021/07/21 01:24:28;;;;;;;14.78;7.12;;;;;;;15.42;71.47;101379.52;1786605;79;21057;-82
2021/07/21 01:27:22;;;;;;;11.40;7.30;;;;;;;15.41;71.58;101371.54;1787815;78;22405;-82
2021/07/21 01:29:52;;;;;;;14.00;8.78;;;;;;;15.40;71.67;101369.77;1784370;79;21491;-82
2021/07/21 01:32:19;;;;;;;10.03;7.65;;;;;;;15.39;71.77;101370.22;1779693;78;21482;-81
2021/07/21 01:34:47;;;;;;;10.63;7.53;;;;;;;15.36;71.77;101373.70;1792994;79;21227;-81
2021/07/21 01:37:14;;;;;;;13.03;8.38;;;;;;;15.34;71.86;101372.78;1786948;79;21051;-82
2021/07/21 01:39:44;;;;;;;12.25;8.70;;;;;;;15.32;71.89;101367.01;1772714;79;21754;-81
2021/07/21 01:42:15;;;;;;;13.62;7.33;;;;;;;15.30;71.97;101369.63;1771730;80;21019;-87
2021/07/21 01:44:43;;;;;;;13.70;7.85;;;;;;;15.27;72.05;101366.92;1780280;79;21055;-87
2021/07/21 01:47:14;;;;;;;11.63;7.25;;;;;;;15.26;72.09;101370.86;1760555;81;39381;-87
2021/07/21 01:49:40;;;;;;;10.93;7.00;;;;;;;15.22;72.20;101368.63;1777112;77;21050;-86
2021/07/21 01:52:11;;;;;;;10.90;7.33;;;;;;;15.22;72.30;101367.71;1792377;78;21779;-86
2021/07/21 01:54:38;;;;;;;9.95;7.25;;;;;;;15.21;72.41;101368.16;1785803;79;21101;-87
2021/07/21 01:57:04;;;;;;;12.78;7.58;;;;;;;15.21;72.53;101364.18;1783756;79;20980;-87
2021/07/21 01:59:31;;;;;;;11.20;7.00;;;;;;;15.24;72.64;101360.67;1781353;79;21540;-88
2021/07/21 02:02:01;;;;;;;14.45;8.00;;;;;;;15.25;72.67;101363.80;1783503;79;21023;-87
2021/07/21 02:04:27;;;;;;;10.58;7.12;;;;;;;15.26;72.78;101361.59;1783484;79;22611;-88
2021/07/21 02:06:54;;;;;;;10.20;7.67;;;;;;;15.27;72.82;101360.73;1783424;79;20984;-87
2021/07/21 02:09:21;;;;;;;13.95;7.78;;;;;;;15.26;72.85;101354.55;1782854;78;21011;-87
2021/07/21 02:11:48;;;;;;;10.53;7.00;;;;;;;15.27;72.93;101358.96;1785155;79;21036;-87
2021/07/21 02:14:15;;;;;;;15.53;7.83;;;;;;;15.27;73.01;101363.38;1785506;79;20995;-88
2021/07/21 02:16:42;;;;;;;12.33;8.23;;;;;;;15.29;73.08;101361.20;1752472;80;21715;-87
2021/07/21 02:19:09;;;;;;;11.55;7.25;;;;;;;15.28;73.07;101357.23;1793973;78;21042;-87
2021/07/21 02:21:40;;;;;;;11.63;7.47;;;;;;;15.27;73.15;101356.31;1779369;79;20992;-88
2021/07/21 02:24:08;;;;;;;9.50;6.95;;;;;;;15.28;73.18;101363.41;1772284;79;21185;-88
2021/07/21 02:26:39;;;;;;;12.73;7.53;;;;;;;15.28;73.23;101352.80;1788748;79;21012;-88
2021/07/21 02:29:07;;;;;;;11.80;7.03;;;;;;;15.29;73.30;101353.69;1780444;79;22574;-88
2021/07/21 02:31:59;;;;;;;13.05;7.37;;;;;;;15.30;73.37;101354.16;1780593;79;20977;-88
2021/07/21 02:34:26;;;;;;;11.15;7.03;;;;;;;15.32;73.42;101352.42;1802879;78;20996;-88
2021/07/21 02:36:53;;;;;;;13.93;6.70;;;;;;;15.33;73.44;101356.43;1812361;79;20971;-88
2021/07/21 02:39:21;;;;;;;11.97;6.45;;;;;;;15.34;73.53;101358.19;1812404;79;20987;-88
2021/07/21 02:41:48;;;;;;;9.53;6.80;;;;;;;15.38;73.55;101358.25;1754979;79;21716;-88
2021/07/21 02:44:17;;;;;;;12.80;6.28;;;;;;;15.38;73.64;101356.92;1812147;79;21000;-88
2021/07/21 02:49:10;;;;;;;10.55;6.25;;;;;;;15.44;73.77;101361.87;1799354;78;21489;-89
2021/07/21 02:51:48;;;;;;;10.10;6.95;;;;;;;15.47;73.75;101367.23;1781543;79;21028;-88
2021/07/21 02:54:29;;;;;;;13.13;6.25;;;;;;;15.51;73.77;101370.38;1783226;80;21782;-89
2021/07/21 02:56:59;;;;;;;15.85;6.60;;;;;;;15.57;73.79;101370.91;1787759;78;21083;-87
2021/07/21 02:59:38;;;;;;;10.48;6.62;;;;;;;15.61;73.79;101370.07;1785240;79;20980;-89
2021/07/21 03:02:05;;;;;;;11.35;6.30;;;;;;;15.65;73.75;101382.95;1796115;79;21011;-88
2021/07/21 03:04:33;;;;;;;11.68;6.72;;;;;;;15.72;73.82;101382.17;1784089;79;21006;-89
2021/07/21 03:06:59;;;;;;;15.25;5.97;;;;;;;15.77;73.81;101380.97;1776514;79;21750;-88
2021/07/21 03:09:26;;;;;;;12.60;7.08;;;;;;;15.82;73.78;101376.58;1785807;79;20965;-88
2021/07/21 03:11:54;;;;;;;13.08;6.95;;;;;;;15.88;73.74;101377.58;1802565;78;20980;-88
2021/07/21 03:14:21;;;;;;;10.15;6.22;;;;;;;15.96;73.74;101383.42;1793168;78;21027;-88
2021/07/21 03:16:51;;;;;;;16.35;7.30;;;;;;;16.03;73.67;101382.60;1785597;79;21441;-88
2021/07/21 03:19:23;;;;;;;10.28;6.78;;;;;;;16.11;73.64;101382.28;1786120;79;21754;-88
2021/07/21 03:21:51;;;;;;;10.80;6.22;;;;;;;16.21;73.55;101385.49;1781023;79;21051;-85
2021/07/21 03:24:22;;;;;;;8.55;6.20;;;;;;;16.30;73.44;101387.38;1776485;79;20996;-89
2021/07/21 03:26:50;;;;;;;15.25;7.10;;;;;;;16.41;73.35;101386.18;1776745;79;21020;-88
2021/07/21 03:29:18;;;;;;;10.45;6.62;;;;;;;16.50;73.22;101381.85;1794353;79;20996;-88
2021/07/21 03:31:45;;;;;;;11.75;6.25;;;;;;;16.61;73.10;101383.30;1780445;79;22598;-89
2021/07/21 03:34:13;;;;;;;14.00;6.58;;;;;;;16.68;72.89;101388.22;1772928;79;20996;-89
2021/07/21 03:36:44;;;;;;;10.48;6.50;;;;;;;16.71;72.70;101389.15;1780147;79;21000;-87
2021/07/21 03:39:11;;;;;;;9.83;5.78;;;;;;;16.79;72.67;101395.86;1786132;79;21392;-88
2021/07/21 03:41:38;;;;;;;9.43;6.03;;;;;;;16.90;72.66;101403.54;1770663;79;21613;-85
2021/07/21 03:44:06;;;;;;;12.30;6.35;;;;;;;17.04;72.56;101401.44;1780082;79;21726;-88
2021/07/21 03:46:38;;;;;;;10.75;6.22;;;;;;;17.14;72.33;101397.12;1783632;79;21525;-88
2021/07/21 03:49:06;;;;;;;8.00;5.58;;;;;;;17.33;72.83;101404.80;1787182;79;21039;-89
2021/07/21 03:51:37;;;;;;;9.08;5.92;;;;;;;17.75;72.86;101396.19;1781462;79;21525;-88
2021/07/21 03:54:11;;;;;;;9.40;5.08;;;;;;;18.33;71.98;101403.59;1790709;78;21162;-88
2021/07/21 03:56:38;;;;;;;7.15;5.20;;;;;;;18.80;71.59;101400.61;1787997;78;27498;-88
2021/07/21 03:59:06;;;;;;;11.12;5.15;;;;;;;19.64;72.54;101397.52;1810576;78;21024;-88
2021/07/21 04:01:34;;;;;;;9.45;5.53;;;;;;;21.35;71.64;101397.48;1812255;78;21556;-88
2021/07/21 04:04:02;;;;;;;7.55;4.80;;;;;;;22.85;69.65;101399.28;1812464;79;21039;-88
2021/07/21 04:06:35;;;;;;;7.45;5.15;;;;;;;24.23;67.66;101398.14;1812432;79;20996;-89
2021/07/21 04:09:06;;;;;;;;;;;;;;;25.39;64.89;101396.78;1815045;78;21916;-89
2021/07/21 04:11:34;;;;;;;9.45;4.30;;;;;;;26.14;62.72;101397.39;1780409;78;20154;-88
2021/07/21 04:14:03;;;;;;;8.30;4.62;;;;;;;26.70;60.25;101397.09;1785806;79;21054;-88
2021/07/21 04:16:32;;;;;;;8.80;4.60;;;;;;;26.53;59.70;101397.59;1791742;78;21130;-87
2021/07/21 04:18:59;;;;;;;6.00;4.33;;;;;;;27.61;59.56;101404.86;1812363;79;20941;-86
2021/07/21 04:21:26;;;;;;;7.70;4.25;;;;;;;28.60;57.30;101402.09;1812329;78;21778;-89
2021/07/21 04:23:53;;;;;;;8.03;4.70;;;;;;;29.14;55.61;101401.27;1812280;79;21054;-89
2021/07/21 04:26:19;;;;;;;6.85;4.42;;;;;;;28.57;53.15;101406.27;1812270;79;21042;-89
2021/07/21 04:28:46;;;;;;;11.80;4.30;;;;;;;27.21;52.51;101411.16;1812110;79;21485;-88
2021/07/21 04:31:13;;;;;;;7.87;4.55;;;;;;;26.03;52.68;101415.71;1812453;78;21102;-90
2021/07/21 04:33:40;;;;;;;8.05;4.12;;;;;;;25.05;53.22;101419.63;1812339;79;21736;-90
2021/07/21 04:36:06;;;;;;;8.98;4.22;;;;;;;24.31;53.71;101422.65;1812295;79;20964;-90
2021/07/21 04:38:33;;;;;;;8.03;4.72;;;;;;;23.73;54.37;101425.55;1812377;79;21003;-88
2021/07/21 04:41:00;;;;;;;6.30;3.83;;;;;;;23.33;54.82;101428.05;1787400;79;20983;-88
2021/07/21 04:43:26;;;;;;;12.75;4.12;;;;;;;22.97;55.17;101427.25;1812262;79;21493;-92
2021/07/21 04:45:53;;;;;;;9.98;4.30;;;;;;;22.75;55.64;101417.33;1812487;79;22419;-90
2021/07/21 04:48:20;;;;;;;5.10;4.30;;;;;;;22.50;55.83;101435.55;1812235;79;20999;-91
2021/07/21 04:50:46;;;;;;;5.30;4.35;;;;;;;22.24;56.14;101432.75;1811766;79;20984;-92
2021/07/21 04:53:13;;;;;;;9.13;4.42;;;;;;;21.96;56.44;101435.30;1754441;79;21098;-93
2021/07/21 04:55:41;;;;;;;6.05;3.92;;;;;;;21.69;56.80;101434.70;1812531;79;21015;-93
2021/07/21 04:58:08;;;;;;;6.00;4.25;;;;;;;21.49;57.19;101441.14;1812161;79;22708;-93
2021/07/21 05:00:37;;;;;;;21.82;5.40;;;;;;;21.29;57.49;101447.09;1812489;79;21004;-92
2021/07/21 05:03:06;;;;;;;8.45;4.40;;;;;;;21.13;57.87;101449.89;1811014;79;21051;-90
2021/07/21 05:05:36;;;;;;;6.65;4.20;;;;;;;21.02;58.20;101447.75;1778064;78;21574;-91
2021/07/21 05:08:04;;;;;;;6.72;4.33;;;;;;;20.97;58.50;101446.88;1807042;78;20998;-90
2021/07/21 05:10:31;;;;;;;10.35;4.33;;;;;;;20.96;58.65;101452.66;1781398;79;21327;-88
2021/07/21 05:15:25;;;;;;;6.28;4.17;;;;;;;21.03;58.98;101446.83;1799282;79;20982;-89
2021/07/21 05:17:52;;;;;;;12.85;4.35;;;;;;;21.09;59.01;101448.11;1807051;79;21042;-89
2021/07/21 05:20:18;;;;;;;9.00;4.65;;;;;;;21.10;59.02;101451.25;1809417;79;21077;-89
2021/07/21 05:22:48;;;;;;;6.33;4.65;;;;;;;21.16;59.13;101458.34;1773327;80;22504;-89
2021/07/21 05:25:15;;;;;;;7.62;4.58;;;;;;;21.24;59.09;101456.94;1773365;80;20985;-89
2021/07/21 05:27:42;;;;;;;11.95;4.33;;;;;;;21.29;59.13;101459.14;1799515;78;21011;-88
2021/07/21 05:30:10;;;;;;;7.53;4.22;;;;;;;21.38;59.21;101461.75;1790076;79;21149;-89
2021/07/21 05:32:37;;;;;;;7.20;4.50;;;;;;;21.47;59.17;101460.79;1793911;79;21001;-89
2021/07/21 05:35:05;;;;;;;5.05;3.95;;;;;;;21.53;59.14;101456.28;1774248;80;21698;-89
2021/07/21 05:37:32;;;;;;;7.28;4.03;;;;;;;21.60;59.08;101447.72;1800868;78;21049;-89
2021/07/21 05:39:59;;;;;;;7.65;4.08;;;;;;;21.69;59.02;101448.09;1809192;79;21542;-90
2021/07/21 05:42:26;;;;;;;9.45;4.37;;;;;;;21.81;58.95;101454.68;1800892;79;21520;-90
2021/07/21 05:44:53;;;;;;;20.72;4.85;;;;;;;21.90;58.81;101452.33;1809658;79;21038;-90
2021/07/21 05:47:20;;;;;;;5.90;4.30;;;;;;;21.98;58.76;101454.50;1795937;79;21743;-90
2021/07/21 05:49:47;;;;;;;7.55;3.87;;;;;;;22.06;58.72;101455.29;1779830;79;20984;-90
2021/07/21 05:52:14;;;;;;;10.03;4.42;;;;;;;22.16;58.56;101453.84;1795280;79;21058;-90
2021/07/21 05:54:41;;;;;;;6.20;3.77;;;;;;;22.25;58.45;101463.13;1806053;78;21011;-89
2021/07/21 05:57:09;;;;;;;5.25;3.85;;;;;;;22.31;58.31;101467.09;1808695;78;21360;-90
2021/07/21 05:59:35;;;;;;;6.00;3.70;;;;;;;22.29;58.06;101463.09;1807741;79;21759;-89
2021/07/21 06:02:02;;;;;;;10.03;4.25;;;;;;;22.06;58.11;101428.48;1806945;79;21051;-90
2021/07/21 06:04:29;;;;;;;17.42;4.67;;;;;;;22.22;58.01;101461.34;1807111;79;21034;-90
2021/07/21 06:06:56;;;;;;;5.90;3.52;;;;;;;22.29;58.05;101471.59;1807140;77;20980;-89
2021/07/21 06:09:23;;;;;;;6.45;4.22;;;;;;;22.29;58.05;101471.59;1807141;79;21606;-90
2021/07/21 06:11:50;;;;;;;8.25;4.12;;;;;;;22.83;58.14;101473.58;1807291;79;21748;-89
2021/07/21 06:14:17;;;;;;;9.20;4.47;;;;;;;22.83;58.14;101473.58;1804658;79;21133;-90
2021/07/21 06:16:44;;;;;;;8.48;4.85;;;;;;;23.19;57.84;101472.16;1775431;80;21014;-89
2021/07/21 06:19:11;;;;;;;16.82;5.87;;;;;;;23.42;57.27;101473.11;1797816;78;21125;-89
2021/07/21 06:21:37;;;;;;;10.40;4.80;;;;;;;23.47;56.77;101472.58;1809191;79;20979;-89
2021/07/21 06:24:05;;;;;;;5.28;3.52;;;;;;;23.39;56.46;101473.18;1800627;79;21742;-89
2021/07/21 06:26:31;;;;;;;7.05;3.60;;;;;;;23.32;56.20;101479.56;1807449;79;21057;-88
2021/07/21 06:28:58;;;;;;;7.33;3.40;;;;;;;23.19;56.27;101475.30;1786439;78;21575;-89
2021/07/21 06:31:25;;;;;;;7.45;3.55;;;;;;;23.17;56.50;101473.98;1794115;79;20984;-88
2021/07/21 06:33:52;;;;;;;5.28;3.92;;;;;;;23.19;56.38;101476.18;1809576;79;20998;-89
2021/07/21 06:36:19;;;;;;;8.15;4.17;;;;;;;23.20;56.38;101470.34;1794156;79;21753;-89
2021/07/21 06:38:46;;;;;;;4.80;3.10;;;;;;;23.17;56.32;101466.39;1797285;78;21122;-89
2021/07/21 06:41:13;;;;;;;5.03;3.60;;;;;;;23.15;56.41;101469.55;1792101;79;21022;-89
2021/07/21 06:43:41;;;;;;;5.03;2.90;;;;;;;23.08;56.34;101469.62;1783995;79;21107;-88
2021/07/21 06:46:08;;;;;;;7.67;3.67;;;;;;;23.08;56.41;101471.44;1786632;79;21122;-89
2021/07/21 06:48:35;;;;;;;8.30;3.37;;;;;;;22.95;56.35;101450.56;1797229;79;21732;-89
2021/07/21 06:51:01;;;;;;;5.80;3.65;;;;;;;22.95;56.35;101450.56;1808686;79;21034;-89
2021/07/21 06:53:30;;;;;;;5.33;3.10;;;;;;;23.06;56.00;101475.48;1804696;79;21003;-88
2021/07/21 06:55:58;;;;;;;9.55;7.17;;;;;;;23.22;56.29;101477.48;1797667;78;21033;-88
2021/07/21 06:58:25;;;;;;;5.92;3.47;;;;;;;23.59;56.13;101482.69;1795324;79;20997;-89
2021/07/21 07:00:52;;;;;;;7.42;3.95;;;;;;;23.89;55.58;101474.55;1799747;78;22475;-89
2021/07/21 07:03:18;;;;;;;4.85;3.25;;;;;;;24.20;55.13;101472.63;1804843;78;21144;-89
2021/07/21 07:05:45;;;;;;;11.55;3.05;;;;;;;24.45;54.65;101473.00;1803782;78;21584;-89
2021/07/21 07:08:11;;;;;;;7.10;2.80;;;;;;;24.48;53.51;101478.33;1806265;79;21152;-89
2021/07/21 07:10:40;;;;;;;9.25;2.67;;;;;;;24.29;52.88;101483.64;1797938;79;21535;-89
2021/07/21 07:13:07;;;;;;;4.28;3.27;;;;;;;24.10;52.88;101482.70;1841085;77;22559;-89
2021/07/21 07:15:34;;;;;;;9.18;3.75;;;;;;;24.03;53.10;101481.91;1849953;77;21013;-89
2021/07/21 07:18:01;;;;;;;6.58;2.40;;;;;;;24.01;53.16;101488.25;1850347;77;20998;-89
2021/07/21 07:20:27;;;;;;;8.70;3.40;;;;;;;23.97;52.82;101486.51;1850227;77;20951;-89
2021/07/21 07:22:54;;;;;;;5.53;2.27;;;;;;;24.00;53.01;101483.30;1850259;77;21085;-89
2021/07/21 07:25:21;;;;;;;2.77;2.08;;;;;;;24.05;53.17;101484.11;1850302;77;21805;-89
2021/07/21 07:27:48;;;;;;;6.28;3.15;;;;;;;24.15;52.88;101483.94;1850265;77;21014;-89
2021/07/21 07:30:16;;;;;;;13.05;3.85;;;;;;;24.17;52.71;101487.48;1849702;77;21014;-88
2021/07/21 07:32:43;;;;;;;17.52;3.65;;;;;;;24.23;52.50;101490.95;1850172;77;21027;-89
2021/07/21 07:35:10;;;;;;;4.75;2.45;;;;;;;24.36;52.15;101491.59;1850366;77;21437;-89
2021/07/21 07:37:37;;;;;;;7.30;3.62;;;;;;;24.35;51.40;101493.84;1850231;77;21739;-89
2021/07/21 07:40:06;;;;;;;8.18;4.42;;;;;;;24.28;51.24;101495.34;1849995;77;21057;-89
2021/07/21 07:42:33;;;;;;;6.28;2.42;;;;;;;24.17;50.94;101502.27;1850225;77;21015;-88
2021/07/21 07:45:00;;;;;;;8.35;3.65;;;;;;;24.01;51.01;101502.58;1850781;77;20982;-89
2021/07/21 07:47:27;;;;;;;3.58;2.55;;;;;;;23.89;50.84;101508.16;1850243;77;21013;-89
2021/07/21 07:49:53;;;;;;;8.15;2.30;;;;;;;23.81;51.15;101508.31;1850250;77;21780;-89
2021/07/21 07:52:20;;;;;;;11.43;3.02;;;;;;;23.89;51.19;101512.20;1850149;77;21519;-89
2021/07/21 07:54:47;;;;;;;6.62;1.70;;;;;;;24.06;51.21;101514.57;1850037;77;21567;-90
2021/07/21 07:57:13;;;;;;;4.90;2.95;;;;;;;24.28;50.84;101511.48;1850188;77;20982;-89
2021/07/21 07:59:40;;;;;;;6.10;2.20;;;;;;;24.45;49.85;101518.75;1850167;77;21452;-89
2021/07/21 08:02:07;;;;;;;4.67;2.08;;;;;;;24.52;49.43;101521.78;1850259;77;21737;-89
2021/07/21 08:04:34;;;;;;;7.35;2.67;;;;;;;24.56;49.31;101518.09;1826813;77;20943;-89
2021/07/21 08:07:01;;;;;;;8.00;2.98;;;;;;;24.80;49.17;101515.81;1849967;77;20990;-89
2021/07/21 08:09:27;;;;;;;5.67;2.47;;;;;;;25.08;48.81;101521.93;1850159;77;21017;-89
2021/07/21 08:11:58;;;;;;;4.97;2.45;;;;;;;25.33;48.05;101519.56;1850081;77;21005;-90
2021/07/21 08:14:23;;;;;;;9.83;1.82;;;;;;;25.40;47.44;101524.76;1850120;77;21778;-89
2021/07/21 08:16:50;;;;;;;7.40;2.25;;;;;;;25.55;47.33;101525.31;1850319;77;20983;-89
2021/07/21 08:19:17;;;;;;;4.60;2.37;;;;;;;25.68;46.54;101521.85;1850372;77;21030;-89
2021/07/21 08:21:45;;;;;;;5.87;2.20;;;;;;;25.65;46.11;101529.53;1850316;77;21480;-89
2021/07/21 08:24:13;;;;;;;3.60;1.92;;;;;;;25.67;45.77;101532.20;1850281;77;21542;-89
2021/07/21 08:26:40;;;;;;;4.08;1.95;;;;;;;25.59;45.52;101538.66;1845222;77;21965;-88
2021/07/21 08:29:11;;;;;;;4.03;2.33;;;;;;;25.45;45.42;101534.53;1850153;77;21043;-90
2021/07/21 08:31:36;;;;;;;4.67;2.20;;;;;;;25.39;45.47;101532.88;1849486;77;20994;-90
2021/07/21 08:34:05;;;;;;;5.80;2.10;;;;;;;25.30;45.16;101541.18;1850301;77;20986;-89
2021/07/21 08:36:33;;;;;;;6.28;2.10;;;;;;;25.18;45.21;101539.16;1850298;77;21460;-89
2021/07/21 08:39:01;;;;;;;5.65;2.00;;;;;;;25.09;45.28;101544.77;1826895;77;21766;-89
2021/07/21 08:41:27;;;;;;;4.33;1.90;;;;;;;25.11;45.40;101546.95;1850296;77;20962;-89
2021/07/21 08:43:56;;;;;;;4.55;1.82;;;;;;;25.19;45.27;101546.34;1850215;77;21021;-89
2021/07/21 08:46:23;;;;;;;3.55;1.62;;;;;;;25.30;44.83;101542.53;1850127;77;20997;-89
2021/07/21 08:48:53;;;;;;;7.17;2.25;;;;;;;25.30;44.21;101551.52;1850373;77;20998;-90
2021/07/21 08:51:24;;;;;;;3.30;1.80;;;;;;;25.28;44.15;101549.77;1850167;77;21757;-90
2021/07/21 08:53:51;;;;;;;3.85;1.90;;;;;;;25.36;43.88;101551.37;1850046;77;20955;-90
2021/07/21 08:56:18;;;;;;;9.43;1.80;;;;;;;25.38;43.88;101542.78;1850172;77;20955;-89
2021/07/21 08:58:48;;;;;;;8.38;2.08;;;;;;;25.43;44.14;101540.43;1850190;77;20986;-88
2021/07/21 09:01:16;;;;;;;4.85;2.27;;;;;;;25.49;44.11;101545.22;1849718;77;21037;-88
2021/07/21 09:03:42;;;;;;;6.10;1.87;;;;;;;25.61;44.21;101544.91;1853425;75;21798;-89
2021/07/21 09:06:09;;;;;;;5.45;2.12;;;;;;;25.82;44.21;101548.45;1846814;77;20851;-90
2021/07/21 09:08:36;;;;;;;5.65;1.90;;;;;;;26.04;44.22;101552.86;1849893;77;21100;-90
2021/07/21 09:11:03;;;;;;;4.03;1.70;;;;;;;26.03;43.05;101560.05;1845517;77;20970;-89
2021/07/21 09:13:30;;;;;;;5.42;2.05;;;;;;;25.74;42.79;101560.31;1850222;77;20950;-90
2021/07/21 09:15:57;;;;;;;4.75;2.02;;;;;;;25.67;43.08;101553.77;1850144;77;21860;-89
2021/07/21 09:18:26;;;;;;;15.08;2.65;;;;;;;25.77;43.12;101555.29;1850180;76;20989;-90
2021/07/21 09:21:06;;;;;;;6.95;2.10;;;;;;;25.86;43.49;101561.80;1849936;77;21061;-89
2021/07/21 09:23:46;;;;;;;6.17;2.20;;;;;;;26.12;43.56;101556.22;1849957;77;20986;-90
2021/07/21 09:26:24;;;;;;;6.33;2.02;;;;;;;26.42;43.34;101557.66;1849685;76;20998;-89
2021/07/21 09:28:53;;;;;;;3.33;1.85;;;;;;;26.56;42.68;101552.28;1844323;77;21763;-89
2021/07/21 09:31:37;;;;;;;9.10;2.22;;;;;;;26.65;42.58;101551.62;1850029;77;20951;-89
2021/07/21 09:34:20;;;;;;;6.00;2.15;;;;;;;26.72;42.32;101551.86;1850292;77;21461;-89
2021/07/21 09:36:47;;;;;;;;;;;;;;;26.86;42.28;101553.70;1852672;77;21495;-90
2021/07/21 09:39:15;;;;;;;4.62;3.95;;;;;;;26.81;41.61;101550.72;1847170;77;20161;-89
2021/07/21 09:41:53;;;;;;;18.57;5.17;;;;;;;26.83;41.85;101557.83;1844666;77;21731;-90
2021/07/21 09:44:38;;;;;;;6.12;2.65;;;;;;;26.81;41.43;101562.39;1842591;77;21021;-89
2021/07/21 09:47:12;;;;;;;6.83;2.80;;;;;;;26.61;40.35;101553.52;1840410;77;20974;-90
2021/07/21 09:49:39;;;;;;;5.80;2.30;;;;;;;26.36;40.15;101559.59;1848409;77;21523;-89
2021/07/21 09:52:22;;;;;;;6.00;3.08;;;;;;;25.97;39.82;101562.91;1849986;77;20982;-89
2021/07/21 09:55:13;;;;;;;12.80;2.62;;;;;;;25.76;40.49;101556.23;1850012;77;22390;-89
2021/07/21 09:57:40;;;;;;;8.50;2.47;;;;;;;25.94;40.65;101559.84;1848855;77;20970;-89
2021/07/21 10:00:20;;;;;;;6.75;3.05;;;;;;;26.11;40.64;101566.14;1849801;77;20934;-90
2021/07/21 10:03:10;;;;;;;8.23;2.25;;;;;;;26.26;40.56;101565.28;1849985;77;21053;-90
2021/07/21 10:06:08;;;;;;;6.78;2.92;;;;;;;26.41;40.08;101560.83;1849825;77;20994;-90
2021/07/21 10:08:48;;;;;;;2.35;1.80;;;;;;;26.55;40.27;101557.25;1850262;77;21756;-89
2021/07/21 10:11:33;;;;;;;4.53;1.98;;;;;;;26.84;39.88;101556.91;1849806;77;21033;-89
2021/07/21 10:14:08;;;;;;;6.15;3.40;;;;;;;27.06;39.61;101561.17;1850160;77;20977;-88
2021/07/21 10:16:45;;;;;;;6.90;4.45;;;;;;;27.19;39.04;101556.27;1849854;77;21062;-89
2021/07/21 10:19:22;;;;;;;6.03;2.62;;;;;;;27.30;38.21;101565.43;1847486;77;21112;-90
2021/07/21 10:21:59;;;;;;;5.83;2.55;;;;;;;27.29;37.78;101568.61;1850431;77;21706;-88
2021/07/21 10:24:29;;;;;;;3.85;2.47;;;;;;;27.32;37.95;101563.08;1849710;77;21010;-89
2021/07/21 10:26:56;;;;;;;6.80;3.70;;;;;;;27.46;37.89;101564.45;1850080;77;21512;-88
2021/07/21 10:29:24;;;;;;;12.78;3.58;;;;;;;27.46;37.47;101567.16;1850192;77;20982;-88
2021/07/21 10:31:51;;;;;;;3.58;2.50;;;;;;;27.46;37.47;101563.09;1850092;77;21009;-88
2021/07/21 10:34:18;;;;;;;5.65;2.92;;;;;;;27.31;37.26;101559.98;1850115;77;22362;-88
2021/07/21 10:36:45;;;;;;;2.90;2.05;;;;;;;27.07;36.90;101561.60;1849835;77;20959;-88
2021/07/21 10:39:19;;;;;;;6.50;2.50;;;;;;;26.80;37.60;101571.41;1850045;77;21002;-88
2021/07/21 10:41:47;;;;;;;3.50;2.30;;;;;;;26.80;37.91;101571.89;1847468;77;20971;-87
2021/07/21 10:44:15;;;;;;;3.10;1.85;;;;;;;26.58;37.47;101569.33;1850050;77;21041;-89
2021/07/21 10:46:51;;;;;;;4.12;2.02;;;;;;;26.34;37.58;101570.90;1849995;77;21803;-89
2021/07/21 10:49:35;;;;;;;2.27;1.87;;;;;;;26.19;37.72;101568.16;1849808;77;21009;-89
2021/07/21 10:52:43;;;;;;;3.15;2.15;;;;;;;26.15;37.64;101570.99;1849833;77;21237;-90
2021/07/21 10:55:16;;;;;;;5.35;1.95;;;;;;;26.23;37.96;101568.96;1848801;77;20971;-88
2021/07/21 11:00:30;;;;;;;6.03;2.08;;;;;;;26.54;37.52;101557.29;1850027;77;21775;-88
2021/07/21 11:03:25;;;;;;;3.25;1.67;;;;;;;26.72;37.64;101563.55;1849720;77;21037;-88
2021/07/21 11:06:07;;;;;;;3.72;1.62;;;;;;;26.90;37.48;101559.89;1848205;77;21064;-89
2021/07/21 11:08:44;;;;;;;4.62;1.87;;;;;;;27.03;37.42;101557.67;1849848;77;20963;-89
2021/07/21 11:11:19;;;;;;;7.05;2.02;;;;;;;27.17;37.28;101562.67;1852296;77;21006;-89
2021/07/21 11:13:58;;;;;;;4.80;1.90;;;;;;;27.25;37.02;101564.20;1845550;77;22453;-89
2021/07/21 11:16:43;;;;;;;2.92;2.15;;;;;;;27.28;36.88;101559.19;1849565;77;21099;-88
2021/07/21 11:19:33;;;;;;;7.22;2.10;;;;;;;27.33;36.48;101562.64;1850232;77;20981;-89
2021/07/21 11:22:12;;;;;;;8.73;2.25;;;;;;;27.44;36.42;101565.88;1851578;77;21196;-90
2021/07/21 11:25:20;;;;;;;4.28;2.40;;;;;;;27.63;36.80;101568.86;1850153;77;21099;-89
2021/07/21 11:27:55;;;;;;;2.95;1.92;;;;;;;27.68;36.82;101565.52;1828340;77;21837;-87
2021/07/21 11:30:56;;;;;;;3.20;2.00;;;;;;;27.89;37.09;101568.02;1848935;77;21041;-89
2021/07/21 11:33:56;;;;;;;4.58;2.72;;;;;;;27.88;36.68;101574.79;1850081;77;21045;-89
2021/07/21 11:36:47;;;;;;;9.63;6.25;;;;;;;27.68;36.67;101574.98;1839957;77;21130;-89
2021/07/21 11:39:51;;;;;;;7.12;4.03;;;;;;;27.32;37.08;101590.59;1849760;77;20997;-88
2021/07/21 11:42:34;;;;;;;6.00;2.60;;;;;;;26.84;37.41;101578.52;1849397;77;21796;-87
2021/07/21 11:45:09;;;;;;;13.85;5.47;;;;;;;26.66;38.29;101584.45;1849969;77;21547;-89
2021/07/21 11:47:40;;;;;;;7.15;2.62;;;;;;;26.59;38.60;101589.10;1850177;77;20979;-88